GLO28Y SBGR-SBVT
Flight info
| Callsign | GLO28Y |
|---|---|
| Flight time | 1h 4m |
| Altitude | 31000 |
| Route | UREMI UZ42 IMDAB DCT SEGLI DCT TODET |
| Aircraft | B38M/M-SDE1FGHILORVWXY/HB1 |
Departure
| Time | 2026-05-08 21:03 |
|---|---|
| Airport | São Paulo/Guarulhos–Governor André Franco Montoro International Airport (SBGR) |
Arrival
| Time | 2026-05-08 22:08 |
|---|---|
| Airport | Eurico de Aguiar Salles International Airport (SBVT) |
| Time | Latitude | Longitude | Altitude | Speed | Heading |
|---|---|---|---|---|---|
| 2026-05-08 20:44 | -23.42894 | -46.48068 | 2471 ft | 0 kts | 85° |
| 2026-05-08 20:56 | -23.42894 | -46.48086 | 2474 ft | 4 kts | 95° |
| 2026-05-08 20:56 | -23.42886 | -46.48113 | 2471 ft | 4 kts | 131° |
| 2026-05-08 20:56 | -23.42868 | -46.48123 | 2472 ft | 1 kts | 180° |
| 2026-05-08 20:59 | -23.42876 | -46.48123 | 2474 ft | 2 kts | 181° |
| 2026-05-08 20:59 | -23.42894 | -46.48125 | 2471 ft | 3 kts | 187° |
| 2026-05-08 21:00 | -23.42922 | -46.48132 | 2471 ft | 5 kts | 196° |
| 2026-05-08 21:00 | -23.42960 | -46.48141 | 2472 ft | 6 kts | 189° |
| 2026-05-08 21:00 | -23.43006 | -46.48140 | 2472 ft | 7 kts | 166° |
| 2026-05-08 21:00 | -23.43060 | -46.48126 | 2472 ft | 9 kts | 169° |
| 2026-05-08 21:01 | -23.43123 | -46.48116 | 2472 ft | 10 kts | 171° |
| 2026-05-08 21:01 | -23.43191 | -46.48118 | 2471 ft | 10 kts | 213° |
| 2026-05-08 21:01 | -23.43217 | -46.48189 | 2472 ft | 11 kts | 258° |
| 2026-05-08 21:01 | -23.43240 | -46.48272 | 2472 ft | 12 kts | 252° |
| 2026-05-08 21:02 | -23.43285 | -46.48351 | 2472 ft | 13 kts | 210° |
| 2026-05-08 21:02 | -23.43369 | -46.48342 | 2472 ft | 13 kts | 154° |
| 2026-05-08 21:02 | -23.43407 | -46.48244 | 2472 ft | 19 kts | 79° |
| 2026-05-08 21:02 | -23.43341 | -46.48011 | 2473 ft | 59 kts | 73° |
| 2026-05-08 21:03 | -23.43167 | -46.47364 | 2476 ft | 120 kts | 73° |
| 2026-05-08 21:03 | -23.42878 | -46.46295 | 2475 ft | 169 kts | 73° |
| 2026-05-08 21:03 | -23.42572 | -46.44989 | 2881 ft | 181 kts | 76° |
| 2026-05-08 21:03 | -23.42270 | -46.43613 | 3411 ft | 189 kts | 72° |
| 2026-05-08 21:04 | -23.41890 | -46.42227 | 3977 ft | 193 kts | 66° |
| 2026-05-08 21:04 | -23.41463 | -46.40842 | 4651 ft | 199 kts | 64° |
| 2026-05-08 21:04 | -23.40946 | -46.39358 | 5108 ft | 215 kts | 62° |
| 2026-05-08 21:04 | -23.40417 | -46.37777 | 5707 ft | 233 kts | 66° |
| 2026-05-08 21:05 | -23.40242 | -46.35915 | 6099 ft | 266 kts | 94° |
| 2026-05-08 21:05 | -23.40818 | -46.33921 | 6755 ft | 281 kts | 110° |
| 2026-05-08 21:05 | -23.41474 | -46.31859 | 7253 ft | 300 kts | 105° |
| 2026-05-08 21:05 | -23.42148 | -46.29680 | 8104 ft | 302 kts | 105° |
| 2026-05-08 21:06 | -23.42835 | -46.27508 | 8955 ft | 306 kts | 105° |
| 2026-05-08 21:06 | -23.43539 | -46.25295 | 9649 ft | 313 kts | 106° |
| 2026-05-08 21:06 | -23.44072 | -46.22996 | 10130 ft | 311 kts | 95° |
| 2026-05-08 21:06 | -23.44438 | -46.20618 | 10629 ft | 328 kts | 96° |
| 2026-05-08 21:07 | -23.44852 | -46.18115 | 11104 ft | 343 kts | 97° |
| 2026-05-08 21:07 | -23.45294 | -46.15528 | 11781 ft | 348 kts | 98° |
| 2026-05-08 21:07 | -23.45742 | -46.12964 | 12594 ft | 352 kts | 98° |
| 2026-05-08 21:07 | -23.46207 | -46.10324 | 12853 ft | 355 kts | 98° |
| 2026-05-08 21:08 | -23.46675 | -46.07684 | 12970 ft | 355 kts | 98° |
| 2026-05-08 21:08 | -23.47144 | -46.05035 | 12979 ft | 356 kts | 98° |
| 2026-05-08 21:08 | -23.47613 | -46.02385 | 12964 ft | 356 kts | 98° |
| 2026-05-08 21:08 | -23.48081 | -45.99734 | 12960 ft | 356 kts | 98° |
| 2026-05-08 21:09 | -23.48549 | -45.97088 | 12964 ft | 356 kts | 98° |
| 2026-05-08 21:09 | -23.48985 | -45.94427 | 13002 ft | 356 kts | 91° |
| 2026-05-08 21:09 | -23.48741 | -45.91809 | 13767 ft | 347 kts | 73° |
| 2026-05-08 21:09 | -23.48165 | -45.89232 | 14394 ft | 354 kts | 72° |
| 2026-05-08 21:10 | -23.47563 | -45.86626 | 15099 ft | 356 kts | 72° |
| 2026-05-08 21:10 | -23.46940 | -45.83996 | 15742 ft | 360 kts | 71° |
| 2026-05-08 21:10 | -23.46310 | -45.81383 | 16394 ft | 363 kts | 71° |
| 2026-05-08 21:10 | -23.45659 | -45.78707 | 17023 ft | 368 kts | 71° |
| 2026-05-08 21:11 | -23.44996 | -45.76001 | 17656 ft | 371 kts | 71° |
| 2026-05-08 21:11 | -23.44320 | -45.73246 | 18311 ft | 373 kts | 71° |
| 2026-05-08 21:11 | -23.43654 | -45.70534 | 18808 ft | 378 kts | 71° |
| 2026-05-08 21:11 | -23.42974 | -45.67752 | 19320 ft | 382 kts | 71° |
| 2026-05-08 21:12 | -23.42282 | -45.64944 | 19767 ft | 386 kts | 71° |
| 2026-05-08 21:12 | -23.41585 | -45.62114 | 20284 ft | 389 kts | 71° |
| 2026-05-08 21:12 | -23.40879 | -45.59253 | 20738 ft | 393 kts | 71° |
| 2026-05-08 21:12 | -23.40167 | -45.56364 | 21218 ft | 397 kts | 71° |
| 2026-05-08 21:13 | -23.39446 | -45.53445 | 21656 ft | 402 kts | 71° |
| 2026-05-08 21:13 | -23.38763 | -45.50477 | 22126 ft | 406 kts | 73° |
| 2026-05-08 21:13 | -23.38128 | -45.47466 | 22597 ft | 410 kts | 73° |
| 2026-05-08 21:13 | -23.37478 | -45.44430 | 23049 ft | 414 kts | 73° |
| 2026-05-08 21:14 | -23.36818 | -45.41364 | 23487 ft | 418 kts | 73° |
| 2026-05-08 21:14 | -23.36152 | -45.38282 | 23856 ft | 421 kts | 73° |
| 2026-05-08 21:14 | -23.35480 | -45.35168 | 24235 ft | 425 kts | 73° |
| 2026-05-08 21:14 | -23.34802 | -45.32032 | 24629 ft | 427 kts | 73° |
| 2026-05-08 21:15 | -23.34125 | -45.28866 | 25022 ft | 430 kts | 73° |
| 2026-05-08 21:15 | -23.33442 | -45.25680 | 25398 ft | 433 kts | 73° |
| 2026-05-08 21:15 | -23.32753 | -45.22478 | 25787 ft | 436 kts | 73° |
| 2026-05-08 21:15 | -23.32062 | -45.19253 | 26135 ft | 439 kts | 73° |
| 2026-05-08 21:16 | -23.31365 | -45.16014 | 26519 ft | 441 kts | 73° |
| 2026-05-08 21:16 | -23.30664 | -45.12762 | 26892 ft | 443 kts | 73° |
| 2026-05-08 21:16 | -23.29957 | -45.09481 | 27234 ft | 446 kts | 73° |
| 2026-05-08 21:16 | -23.29245 | -45.06183 | 27576 ft | 449 kts | 73° |
| 2026-05-08 21:17 | -23.28527 | -45.02860 | 27930 ft | 452 kts | 73° |
| 2026-05-08 21:17 | -23.27814 | -44.99566 | 28275 ft | 454 kts | 73° |
| 2026-05-08 21:17 | -23.27088 | -44.96212 | 28621 ft | 457 kts | 73° |
| 2026-05-08 21:17 | -23.26356 | -44.92833 | 28916 ft | 460 kts | 74° |
| 2026-05-08 21:18 | -23.25620 | -44.89443 | 29312 ft | 461 kts | 73° |
| 2026-05-08 21:18 | -23.24882 | -44.86046 | 29602 ft | 465 kts | 73° |
| 2026-05-08 21:18 | -23.24136 | -44.82618 | 29924 ft | 468 kts | 74° |
| 2026-05-08 21:18 | -23.23385 | -44.79164 | 30213 ft | 471 kts | 74° |
| 2026-05-08 21:19 | -23.22627 | -44.75690 | 30508 ft | 472 kts | 74° |
| 2026-05-08 21:19 | -23.21867 | -44.72207 | 30780 ft | 474 kts | 74° |
| 2026-05-08 21:19 | -23.21103 | -44.68708 | 30971 ft | 476 kts | 74° |
| 2026-05-08 21:20 | -23.19480 | -44.61779 | 30959 ft | 479 kts | 65° |
| 2026-05-08 21:20 | -23.16784 | -44.55054 | 30954 ft | 492 kts | 64° |
| 2026-05-08 21:21 | -23.14038 | -44.48142 | 30958 ft | 501 kts | 64° |
| 2026-05-08 21:21 | -23.11282 | -44.41228 | 30960 ft | 501 kts | 64° |
| 2026-05-08 21:22 | -23.08511 | -44.34287 | 30960 ft | 501 kts | 64° |
| 2026-05-08 21:22 | -23.05731 | -44.27333 | 30966 ft | 501 kts | 64° |
| 2026-05-08 21:23 | -23.02950 | -44.20389 | 30954 ft | 501 kts | 64° |
| 2026-05-08 21:23 | -23.00173 | -44.13453 | 30972 ft | 501 kts | 64° |
| 2026-05-08 21:24 | -22.97387 | -44.06525 | 30964 ft | 501 kts | 64° |
| 2026-05-08 21:24 | -22.94601 | -43.99596 | 30940 ft | 501 kts | 64° |
| 2026-05-08 21:25 | -22.91822 | -43.92697 | 30936 ft | 501 kts | 64° |
| 2026-05-08 21:25 | -22.89007 | -43.85720 | 30908 ft | 507 kts | 64° |
| 2026-05-08 21:26 | -22.86631 | -43.79836 | 30917 ft | 508 kts | 64° |
| 2026-05-08 21:26 | -22.83814 | -43.72874 | 30912 ft | 507 kts | 64° |
| 2026-05-08 21:27 | -22.80974 | -43.65861 | 30921 ft | 507 kts | 64° |
| 2026-05-08 21:27 | -22.78129 | -43.58851 | 30928 ft | 508 kts | 64° |
| 2026-05-08 21:28 | -22.75284 | -43.51847 | 30949 ft | 508 kts | 64° |
| 2026-05-08 21:28 | -22.72428 | -43.44830 | 30950 ft | 508 kts | 64° |
| 2026-05-08 21:29 | -22.69576 | -43.37831 | 30950 ft | 508 kts | 64° |
| 2026-05-08 21:29 | -22.66714 | -43.30819 | 30951 ft | 508 kts | 64° |
| 2026-05-08 21:30 | -22.63872 | -43.23865 | 30952 ft | 508 kts | 64° |
| 2026-05-08 21:30 | -22.61009 | -43.16872 | 30964 ft | 507 kts | 64° |
| 2026-05-08 21:31 | -22.58149 | -43.09896 | 31013 ft | 507 kts | 64° |
| 2026-05-08 21:31 | -22.55286 | -43.02922 | 31013 ft | 507 kts | 64° |
| 2026-05-08 21:32 | -22.52416 | -42.95943 | 31020 ft | 508 kts | 64° |
| 2026-05-08 21:32 | -22.49549 | -42.88978 | 31031 ft | 506 kts | 65° |
| 2026-05-08 21:33 | -22.46682 | -42.82026 | 31037 ft | 506 kts | 65° |
| 2026-05-08 21:33 | -22.43830 | -42.75119 | 31053 ft | 506 kts | 65° |
| 2026-05-08 21:34 | -22.40960 | -42.68179 | 31051 ft | 506 kts | 65° |
| 2026-05-08 21:34 | -22.38091 | -42.61251 | 31056 ft | 506 kts | 65° |
| 2026-05-08 21:35 | -22.35215 | -42.54313 | 31067 ft | 505 kts | 65° |
| 2026-05-08 21:35 | -22.32343 | -42.47394 | 31067 ft | 504 kts | 65° |
| 2026-05-08 21:36 | -22.29389 | -42.40522 | 31047 ft | 504 kts | 57° |
| 2026-05-08 21:36 | -22.25207 | -42.34487 | 31032 ft | 502 kts | 52° |
| 2026-05-08 21:37 | -22.20987 | -42.28460 | 31068 ft | 503 kts | 52° |
| 2026-05-08 21:37 | -22.16781 | -42.22488 | 31061 ft | 503 kts | 51° |
| 2026-05-08 21:38 | -22.12555 | -42.16494 | 31051 ft | 502 kts | 52° |
| 2026-05-08 21:38 | -22.08322 | -42.10497 | 31047 ft | 502 kts | 52° |
| 2026-05-08 21:39 | -22.04086 | -42.04504 | 31041 ft | 502 kts | 52° |
| 2026-05-08 21:39 | -21.99853 | -41.98521 | 31036 ft | 500 kts | 52° |
| 2026-05-08 21:39 | -21.97786 | -41.95600 | 31044 ft | 481 kts | 52° |
| 2026-05-08 21:40 | -21.95788 | -41.92781 | 31048 ft | 466 kts | 52° |
| 2026-05-08 21:40 | -21.91879 | -41.87267 | 31040 ft | 462 kts | 52° |
| 2026-05-08 21:41 | -21.86033 | -41.79032 | 31038 ft | 461 kts | 52° |
| 2026-05-08 21:41 | -21.82155 | -41.73589 | 31076 ft | 461 kts | 52° |
| 2026-05-08 21:42 | -21.78288 | -41.68140 | 30998 ft | 446 kts | 52° |
| 2026-05-08 21:42 | -21.76427 | -41.65523 | 30908 ft | 433 kts | 52° |
| 2026-05-08 21:42 | -21.74604 | -41.62954 | 30461 ft | 431 kts | 52° |
| 2026-05-08 21:43 | -21.72779 | -41.60394 | 29889 ft | 432 kts | 52° |
| 2026-05-08 21:43 | -21.70943 | -41.57829 | 29329 ft | 431 kts | 52° |
| 2026-05-08 21:43 | -21.69145 | -41.55312 | 28883 ft | 428 kts | 52° |
| 2026-05-08 21:43 | -21.67339 | -41.52782 | 28462 ft | 424 kts | 52° |
| 2026-05-08 21:44 | -21.65551 | -41.50279 | 28037 ft | 421 kts | 52° |
| 2026-05-08 21:44 | -21.63773 | -41.47789 | 27615 ft | 418 kts | 52° |
| 2026-05-08 21:44 | -21.62006 | -41.45317 | 27192 ft | 415 kts | 52° |
| 2026-05-08 21:44 | -21.60253 | -41.42866 | 26780 ft | 412 kts | 52° |
| 2026-05-08 21:45 | -21.58510 | -41.40429 | 26366 ft | 409 kts | 52° |
| 2026-05-08 21:45 | -21.56778 | -41.38008 | 25969 ft | 407 kts | 52° |
| 2026-05-08 21:45 | -21.55059 | -41.35607 | 25569 ft | 404 kts | 52° |
| 2026-05-08 21:45 | -21.53350 | -41.33220 | 25174 ft | 402 kts | 52° |
| 2026-05-08 21:46 | -21.51647 | -41.30843 | 24785 ft | 400 kts | 51° |
| 2026-05-08 21:46 | -21.49970 | -41.28507 | 24399 ft | 398 kts | 50° |
| 2026-05-08 21:46 | -21.47994 | -41.26435 | 23893 ft | 397 kts | 36° |
| 2026-05-08 21:46 | -21.45845 | -41.24584 | 23541 ft | 394 kts | 38° |
| 2026-05-08 21:47 | -21.43734 | -41.22728 | 23127 ft | 391 kts | 38° |
| 2026-05-08 21:47 | -21.41630 | -41.20887 | 22693 ft | 389 kts | 38° |
| 2026-05-08 21:47 | -21.39563 | -41.19044 | 22378 ft | 383 kts | 38° |
| 2026-05-08 21:47 | -21.37505 | -41.17243 | 22001 ft | 380 kts | 38° |
| 2026-05-08 21:48 | -21.35478 | -41.15449 | 21663 ft | 376 kts | 39° |
| 2026-05-08 21:48 | -21.33460 | -41.13675 | 21240 ft | 374 kts | 38° |
| 2026-05-08 21:48 | -21.31455 | -41.11912 | 20891 ft | 371 kts | 38° |
| 2026-05-08 21:48 | -21.29466 | -41.10166 | 20511 ft | 368 kts | 38° |
| 2026-05-08 21:49 | -21.27492 | -41.08433 | 20160 ft | 365 kts | 39° |
| 2026-05-08 21:49 | -21.25538 | -41.06708 | 19802 ft | 362 kts | 39° |
| 2026-05-08 21:49 | -21.23621 | -41.05019 | 19466 ft | 359 kts | 38° |
| 2026-05-08 21:49 | -21.21695 | -41.03330 | 19120 ft | 356 kts | 38° |
| 2026-05-08 21:50 | -21.19783 | -41.01653 | 18767 ft | 354 kts | 39° |
| 2026-05-08 21:50 | -21.17890 | -40.99984 | 18405 ft | 352 kts | 39° |
| 2026-05-08 21:50 | -21.16003 | -40.98330 | 18027 ft | 349 kts | 39° |
| 2026-05-08 21:50 | -21.14132 | -40.96689 | 17657 ft | 346 kts | 39° |
| 2026-05-08 21:51 | -21.12278 | -40.95063 | 17315 ft | 343 kts | 39° |
| 2026-05-08 21:51 | -21.10443 | -40.93453 | 16967 ft | 339 kts | 39° |
| 2026-05-08 21:51 | -21.08621 | -40.91855 | 16615 ft | 336 kts | 39° |
| 2026-05-08 21:51 | -21.06821 | -40.90277 | 16280 ft | 333 kts | 38° |
| 2026-05-08 21:52 | -21.05031 | -40.88707 | 15913 ft | 331 kts | 38° |
| 2026-05-08 21:52 | -21.03257 | -40.87152 | 15584 ft | 328 kts | 38° |
| 2026-05-08 21:52 | -21.01499 | -40.85613 | 15262 ft | 325 kts | 38° |
| 2026-05-08 21:52 | -20.99758 | -40.84088 | 14931 ft | 323 kts | 38° |
| 2026-05-08 21:53 | -20.98025 | -40.82570 | 14598 ft | 320 kts | 38° |
| 2026-05-08 21:53 | -20.96308 | -40.81066 | 14279 ft | 318 kts | 38° |
| 2026-05-08 21:53 | -20.94599 | -40.79572 | 13955 ft | 316 kts | 38° |
| 2026-05-08 21:53 | -20.92925 | -40.78107 | 13605 ft | 314 kts | 38° |
| 2026-05-08 21:54 | -20.91240 | -40.76633 | 13255 ft | 311 kts | 38° |
| 2026-05-08 21:54 | -20.89575 | -40.75177 | 12930 ft | 308 kts | 38° |
| 2026-05-08 21:54 | -20.87921 | -40.73732 | 12609 ft | 305 kts | 38° |
| 2026-05-08 21:54 | -20.86285 | -40.72302 | 12290 ft | 302 kts | 38° |
| 2026-05-08 21:55 | -20.84659 | -40.70882 | 11972 ft | 299 kts | 38° |
| 2026-05-08 21:55 | -20.83054 | -40.69480 | 11666 ft | 297 kts | 38° |
| 2026-05-08 21:55 | -20.81462 | -40.68090 | 11376 ft | 294 kts | 38° |
| 2026-05-08 21:56 | -20.78888 | -40.64711 | 10742 ft | 292 kts | 52° |
| 2026-05-08 21:56 | -20.77712 | -40.62958 | 10456 ft | 289 kts | 52° |
| 2026-05-08 21:56 | -20.76553 | -40.61237 | 10239 ft | 284 kts | 52° |
| 2026-05-08 21:56 | -20.75417 | -40.59552 | 10108 ft | 275 kts | 52° |
| 2026-05-08 21:57 | -20.74307 | -40.57907 | 9889 ft | 271 kts | 52° |
| 2026-05-08 21:57 | -20.73205 | -40.56275 | 9559 ft | 270 kts | 52° |
| 2026-05-08 21:57 | -20.72106 | -40.54649 | 9256 ft | 268 kts | 52° |
| 2026-05-08 21:57 | -20.71035 | -40.53062 | 8975 ft | 266 kts | 52° |
| 2026-05-08 21:58 | -20.69941 | -40.51444 | 8687 ft | 264 kts | 52° |
| 2026-05-08 21:58 | -20.68886 | -40.49884 | 8413 ft | 261 kts | 52° |
| 2026-05-08 21:58 | -20.67825 | -40.48315 | 8137 ft | 259 kts | 52° |
| 2026-05-08 21:58 | -20.66774 | -40.46759 | 7866 ft | 257 kts | 52° |
| 2026-05-08 21:59 | -20.65733 | -40.45222 | 7598 ft | 254 kts | 52° |
| 2026-05-08 21:59 | -20.64700 | -40.43695 | 7328 ft | 252 kts | 51° |
| 2026-05-08 21:59 | -20.63676 | -40.42182 | 7065 ft | 250 kts | 52° |
| 2026-05-08 21:59 | -20.62674 | -40.40674 | 6793 ft | 248 kts | 51° |
| 2026-05-08 22:00 | -20.61660 | -40.39185 | 6534 ft | 251 kts | 51° |
| 2026-05-08 22:00 | -20.60620 | -40.37660 | 6241 ft | 255 kts | 51° |
| 2026-05-08 22:00 | -20.59572 | -40.36121 | 5966 ft | 256 kts | 52° |
| 2026-05-08 22:00 | -20.58528 | -40.34581 | 5688 ft | 255 kts | 52° |
| 2026-05-08 22:01 | -20.57504 | -40.33072 | 5405 ft | 253 kts | 52° |
| 2026-05-08 22:01 | -20.56473 | -40.31552 | 5109 ft | 253 kts | 52° |
| 2026-05-08 22:01 | -20.55444 | -40.30035 | 4816 ft | 251 kts | 52° |
| 2026-05-08 22:01 | -20.54426 | -40.28536 | 4535 ft | 249 kts | 52° |
| 2026-05-08 22:02 | -20.53412 | -40.27041 | 4255 ft | 247 kts | 52° |
| 2026-05-08 22:02 | -20.52369 | -40.25600 | 4030 ft | 242 kts | 41° |
| 2026-05-08 22:02 | -20.50957 | -40.24733 | 3846 ft | 232 kts | 14° |
| 2026-05-08 22:02 | -20.49380 | -40.24650 | 3686 ft | 225 kts | 353° |
| 2026-05-08 22:03 | -20.47858 | -40.24841 | 3579 ft | 215 kts | 355° |
| 2026-05-08 22:03 | -20.46407 | -40.25006 | 3488 ft | 204 kts | 355° |
| 2026-05-08 22:03 | -20.45049 | -40.25167 | 3490 ft | 191 kts | 354° |
| 2026-05-08 22:03 | -20.43748 | -40.25340 | 3330 ft | 186 kts | 354° |
| 2026-05-08 22:04 | -20.42496 | -40.25509 | 3168 ft | 178 kts | 353° |
| 2026-05-08 22:04 | -20.41294 | -40.25687 | 2954 ft | 172 kts | 354° |
| 2026-05-08 22:04 | -20.40115 | -40.25858 | 2695 ft | 170 kts | 353° |
| 2026-05-08 22:04 | -20.38958 | -40.26026 | 2485 ft | 168 kts | 354° |
| 2026-05-08 22:05 | -20.37794 | -40.26196 | 2346 ft | 170 kts | 354° |
| 2026-05-08 22:05 | -20.36640 | -40.26368 | 2218 ft | 164 kts | 352° |
| 2026-05-08 22:05 | -20.35538 | -40.26525 | 2010 ft | 157 kts | 354° |
| 2026-05-08 22:05 | -20.34471 | -40.26683 | 1735 ft | 153 kts | 354° |
| 2026-05-08 22:06 | -20.33425 | -40.26824 | 1473 ft | 153 kts | 353° |
| 2026-05-08 22:06 | -20.32377 | -40.26992 | 1243 ft | 152 kts | 353° |
| 2026-05-08 22:06 | -20.31323 | -40.27150 | 1047 ft | 155 kts | 354° |
| 2026-05-08 22:06 | -20.30254 | -40.27295 | 850 ft | 154 kts | 354° |
| 2026-05-08 22:07 | -20.29200 | -40.27489 | 660 ft | 154 kts | 348° |
| 2026-05-08 22:07 | -20.28136 | -40.27652 | 427 ft | 153 kts | 358° |
| 2026-05-08 22:07 | -20.27097 | -40.27772 | 197 ft | 150 kts | 354° |
| 2026-05-08 22:07 | -20.26117 | -40.27917 | 32 ft | 132 kts | 355° |
| 2026-05-08 22:08 | -20.25368 | -40.28029 | 31 ft | 77 kts | 352° |
| 2026-05-08 22:08 | -20.25126 | -40.28086 | 28 ft | 22 kts | 332° |
| 2026-05-08 22:08 | -20.25044 | -40.28159 | 29 ft | 13 kts | 275° |
| 2026-05-08 22:08 | -20.25109 | -40.28223 | 29 ft | 14 kts | 198° |
| 2026-05-08 22:09 | -20.25212 | -40.28230 | 29 ft | 16 kts | 177° |
| 2026-05-08 22:09 | -20.25332 | -40.28213 | 29 ft | 18 kts | 169° |
| 2026-05-08 22:09 | -20.25464 | -40.28191 | 29 ft | 20 kts | 172° |
| 2026-05-08 22:09 | -20.25609 | -40.28170 | 29 ft | 22 kts | 172° |
| 2026-05-08 22:10 | -20.25767 | -40.28146 | 29 ft | 24 kts | 172° |
| 2026-05-08 22:10 | -20.25938 | -40.28121 | 29 ft | 26 kts | 173° |
| 2026-05-08 22:10 | -20.26122 | -40.28095 | 29 ft | 27 kts | 172° |
| 2026-05-08 22:10 | -20.26316 | -40.28067 | 29 ft | 28 kts | 173° |
| 2026-05-08 22:11 | -20.26393 | -40.28060 | 29 ft | 0 kts | 194° |
| 2026-05-08 22:11 | -20.26400 | -40.28064 | 29 ft | 2 kts | 211° |
| 2026-05-08 22:11 | -20.26414 | -40.28086 | 29 ft | 6 kts | 250° |
| 2026-05-08 22:11 | -20.26423 | -40.28137 | 29 ft | 8 kts | 262° |
| 2026-05-08 22:12 | -20.26428 | -40.28176 | 29 ft | 4 kts | 262° |
| 2026-05-08 22:12 | -20.26429 | -40.28184 | 29 ft | 0 kts | 262° |